Time;durP1;ratioP1;P1;durP2;ratioP2;P2;SDS_P1;SDS_P2;PMS_P1;PMS_P2;Temp;Humidity;BMP_temperature;BMP_pressure;BME280_temperature;BME280_humidity;BME280_pressure;Samples;Min_cycle;Max_cycle;Signal;HPM_P1;HPM_P2
2022/01/03 00:02:23;;;;;;;8.20;2.70;;;;;;;;;;5051506;28;20033;-63
2022/01/03 00:04:49;;;;;;;8.80;2.95;;;;;;;;;;5046915;28;20059;-64
2022/01/03 00:07:15;;;;;;;7.45;2.33;;;;;;;;;;5052115;28;20037;-62
2022/01/03 00:09:41;;;;;;;7.15;2.10;;;;;;;;;;5052808;28;20080;-62
2022/01/03 00:12:07;;;;;;;10.73;3.15;;;;;;;;;;5053255;28;20505;-62
2022/01/03 00:14:33;;;;;;;11.60;2.10;;;;;;;;;;5049846;28;20509;-63
2022/01/03 00:16:58;;;;;;;5.43;2.35;;;;;;;;;;5047671;28;20041;-62
2022/01/03 00:19:24;;;;;;;8.73;2.50;;;;;;;;;;5050520;28;20468;-62
2022/01/03 00:21:52;;;;;;;9.35;2.72;;;;;;;;;;5052587;28;20040;-63
2022/01/03 00:24:24;;;;;;;7.28;2.47;;;;;;;;;;5052090;28;20102;-62
2022/01/03 00:26:59;;;;;;;7.38;2.40;;;;;;;;;;5052243;28;20056;-63
2022/01/03 00:29:27;;;;;;;4.32;1.92;;;;;;;;;;5052024;28;20036;-62
2022/01/03 00:31:56;;;;;;;7.03;2.10;;;;;;;;;;5051444;28;20462;-62
2022/01/03 00:34:27;;;;;;;10.05;2.58;;;;;;;;;;5051141;28;20051;-62
2022/01/03 00:36:53;;;;;;;;;;;;;;;;;;5049085;28;20112;-63
2022/01/03 00:39:18;;;;;;;5.28;2.22;;;;;;;;;;5051335;28;20051;-62
2022/01/03 00:41:48;;;;;;;7.40;2.67;;;;;;;;;;5053427;28;20497;-61
2022/01/03 00:44:14;;;;;;;8.00;2.30;;;;;;;;;;5048885;28;20512;-61
2022/01/03 00:46:41;;;;;;;6.40;2.20;;;;;;;;;;5052722;28;20029;-61
2022/01/03 00:49:06;;;;;;;5.15;2.10;;;;;;;;;;5047951;28;20038;-61
2022/01/03 00:51:33;;;;;;;14.95;2.70;;;;;;;;;;5051166;28;20025;-62
2022/01/03 00:53:59;;;;;;;6.85;2.03;;;;;;;;;;5049798;28;20028;-62
2022/01/03 00:56:33;;;;;;;9.07;2.50;;;;;;;;;;5051320;28;20037;-62
2022/01/03 00:59:09;;;;;;;11.68;2.72;;;;;;;;;;5052115;28;20473;-61
2022/01/03 01:01:44;;;;;;;8.30;2.10;;;;;;;;;;5044579;28;20026;-62
2022/01/03 01:04:10;;;;;;;7.00;2.28;;;;;;;;;;5042196;28;20112;-61
2022/01/03 01:06:36;;;;;;;7.22;2.42;;;;;;;;;;5052388;28;20421;-62
2022/01/03 01:09:05;;;;;;;9.02;2.80;;;;;;;;;;5050535;28;20095;-62
2022/01/03 01:11:31;;;;;;;9.63;2.47;;;;;;;;;;5051901;28;20038;-61
2022/01/03 01:13:57;;;;;;;8.50;2.47;;;;;;;;;;5050447;28;20080;-61
2022/01/03 01:16:24;;;;;;;8.38;2.17;;;;;;;;;;5051416;28;20070;-61
2022/01/03 01:18:50;;;;;;;11.27;3.20;;;;;;;;;;5050383;28;20032;-61
2022/01/03 01:21:17;;;;;;;7.60;2.70;;;;;;;;;;5051814;28;20037;-62
2022/01/03 01:23:43;;;;;;;9.48;3.17;;;;;;;;;;5051812;28;20032;-61
2022/01/03 01:28:53;;;;;;;8.95;2.13;;;;;;;;;;5050677;28;20035;-63
2022/01/03 01:31:24;;;;;;;12.27;2.50;;;;;;;;;;5049070;28;20394;-62
2022/01/03 01:33:55;;;;;;;13.27;3.50;;;;;;;;;;5051184;28;20033;-61
2022/01/03 01:36:26;;;;;;;;;;;;;;;;;;5052220;28;20075;-62
2022/01/03 01:38:58;;;;;;;5.45;1.95;;;;;;;;;;5051758;28;19920;-63
2022/01/03 01:41:27;;;;;;;9.57;2.58;;;;;;;;;;5052126;28;20036;-61
2022/01/03 01:43:54;;;;;;;10.95;2.38;;;;;;;;;;5051510;28;20086;-63
2022/01/03 01:46:21;;;;;;;18.27;2.78;;;;;;;;;;5051090;28;20040;-62
2022/01/03 01:48:49;;;;;;;11.32;2.33;;;;;;;;;;5047661;28;20083;-61
2022/01/03 01:51:17;;;;;;;13.20;2.65;;;;;;;;;;5050332;28;20040;-61
2022/01/03 01:53:48;;;;;;;16.52;3.03;;;;;;;;;;5051148;28;20029;-61
2022/01/03 01:56:19;;;;;;;15.55;2.60;;;;;;;;;;5050325;28;20116;-61
2022/01/03 01:59:17;;;;;;;11.13;2.25;;;;;;;;;;5050367;28;20032;-61
2022/01/03 02:01:46;;;;;;;11.55;2.42;;;;;;;;;;5048397;28;20025;-61
2022/01/03 02:04:30;;;;;;;8.68;2.03;;;;;;;;;;5047745;28;20041;-61
2022/01/03 02:07:00;;;;;;;9.38;2.42;;;;;;;;;;5050627;28;20036;-63
2022/01/03 02:09:42;;;;;;;13.02;2.22;;;;;;;;;;5050791;28;20060;-61
2022/01/03 02:12:14;;;;;;;16.00;2.80;;;;;;;;;;5045822;28;20036;-61
2022/01/03 02:14:40;;;;;;;15.02;2.95;;;;;;;;;;5049175;28;20056;-61
2022/01/03 02:17:05;;;;;;;12.35;2.47;;;;;;;;;;5045145;28;20041;-62
2022/01/03 02:19:35;;;;;;;16.15;2.53;;;;;;;;;;5048612;28;20033;-61
2022/01/03 02:22:00;;;;;;;10.18;2.63;;;;;;;;;;5049256;28;20048;-62
2022/01/03 02:24:26;;;;;;;14.40;2.90;;;;;;;;;;5050592;28;20036;-62
2022/01/03 02:26:52;;;;;;;14.60;2.75;;;;;;;;;;5050240;28;20035;-61
2022/01/03 02:29:17;;;;;;;13.35;2.80;;;;;;;;;;5047465;28;20243;-61
2022/01/03 02:31:43;;;;;;;14.43;2.90;;;;;;;;;;5049770;28;20482;-62
2022/01/03 02:34:08;;;;;;;8.63;2.33;;;;;;;;;;5047347;28;20033;-62
2022/01/03 02:36:35;;;;;;;8.30;2.13;;;;;;;;;;5045393;28;20459;-61
2022/01/03 02:39:00;;;;;;;17.92;2.63;;;;;;;;;;5048731;28;20040;-62
2022/01/03 02:41:26;;;;;;;14.85;2.58;;;;;;;;;;5049720;28;20033;-62
2022/01/03 02:43:52;;;;;;;11.35;2.50;;;;;;;;;;5049523;28;20044;-62
2022/01/03 02:46:18;;;;;;;12.13;2.58;;;;;;;;;;5045974;28;20032;-62
2022/01/03 02:48:43;;;;;;;12.05;2.13;;;;;;;;;;5049130;28;20120;-62
2022/01/03 02:51:11;;;;;;;9.45;2.65;;;;;;;;;;5049355;28;20375;-62
2022/01/03 02:53:38;;;;;;;6.68;2.60;;;;;;;;;;5049641;28;20037;-62
2022/01/03 02:56:03;;;;;;;13.40;2.35;;;;;;;;;;5049430;28;20037;-62
2022/01/03 02:58:29;;;;;;;13.20;3.30;;;;;;;;;;5050059;28;20497;-61
2022/01/03 03:00:54;;;;;;;13.02;3.00;;;;;;;;;;5050050;28;20033;-61
2022/01/03 03:03:21;;;;;;;12.23;2.15;;;;;;;;;;5046379;28;20036;-61
2022/01/03 03:05:47;;;;;;;13.00;2.40;;;;;;;;;;5047626;28;20032;-61
2022/01/03 03:08:13;;;;;;;9.75;2.20;;;;;;;;;;5051762;28;20040;-61
2022/01/03 03:10:40;;;;;;;11.63;2.25;;;;;;;;;;5054921;28;20514;-61
2022/01/03 03:13:06;;;;;;;14.57;2.50;;;;;;;;;;5053071;28;20360;-61
2022/01/03 03:15:33;;;;;;;7.63;1.85;;;;;;;;;;5051164;28;20052;-61
2022/01/03 03:17:58;;;;;;;10.45;2.33;;;;;;;;;;5052847;28;20504;-63
2022/01/03 03:20:27;;;;;;;14.35;2.42;;;;;;;;;;5052028;28;20112;-62
2022/01/03 03:22:53;;;;;;;6.97;2.35;;;;;;;;;;5054204;28;20140;-61
2022/01/03 03:25:32;;;;;;;10.95;1.95;;;;;;;;;;5053466;28;20627;-61
2022/01/03 03:28:01;;;;;;;11.00;2.17;;;;;;;;;;5052520;28;20372;-62
2022/01/03 03:30:33;;;;;;;13.27;2.63;;;;;;;;;;5053100;28;20232;-61
2022/01/03 03:33:12;;;;;;;12.23;2.60;;;;;;;;;;5052219;28;20116;-63
2022/01/03 03:35:38;;;;;;;7.65;2.40;;;;;;;;;;5053279;28;20044;-61
2022/01/03 03:38:04;;;;;;;8.85;1.98;;;;;;;;;;5068955;28;20036;-61
2022/01/03 03:40:29;;;;;;;14.95;2.97;;;;;;;;;;5052892;28;20379;-61
2022/01/03 03:42:55;;;;;;;14.38;3.10;;;;;;;;;;5069607;28;20064;-61
2022/01/03 03:45:21;;;;;;;7.60;1.55;;;;;;;;;;5068515;28;20538;-61
2022/01/03 03:47:46;;;;;;;10.30;1.90;;;;;;;;;;5046390;28;20493;-62
2022/01/03 03:50:12;;;;;;;11.82;2.28;;;;;;;;;;5046905;28;21308;-61
2022/01/03 03:52:38;;;;;;;9.82;2.60;;;;;;;;;;5051140;28;20483;-61
2022/01/03 03:55:06;;;;;;;13.70;2.60;;;;;;;;;;5054009;28;20068;-62
2022/01/03 03:57:31;;;;;;;7.28;1.48;;;;;;;;;;5031591;28;20043;-61
2022/01/03 03:59:57;;;;;;;12.20;2.35;;;;;;;;;;5047960;28;20036;-61
2022/01/03 04:02:22;;;;;;;10.70;2.20;;;;;;;;;;5050117;28;20120;-61
2022/01/03 04:04:47;;;;;;;11.23;2.20;;;;;;;;;;5054196;28;20037;-61
2022/01/03 04:07:13;;;;;;;10.57;2.20;;;;;;;;;;5051634;28;20453;-61
2022/01/03 04:09:38;;;;;;;6.65;2.10;;;;;;;;;;5053386;28;20532;-61
2022/01/03 04:12:04;;;;;;;15.02;2.67;;;;;;;;;;5066739;28;20029;-63
2022/01/03 04:14:29;;;;;;;9.65;2.03;;;;;;;;;;5051909;28;20478;-61
2022/01/03 04:16:54;;;;;;;10.85;2.17;;;;;;;;;;5051962;28;20577;-61
2022/01/03 04:19:20;;;;;;;12.23;2.75;;;;;;;;;;5051186;28;20029;-61
2022/01/03 04:21:46;;;;;;;9.82;2.45;;;;;;;;;;5053486;28;20056;-61
2022/01/03 04:24:11;;;;;;;8.10;1.63;;;;;;;;;;5051984;28;20031;-61
2022/01/03 04:26:39;;;;;;;18.63;1.80;;;;;;;;;;5053461;28;20032;-61
2022/01/03 04:29:06;;;;;;;6.20;1.65;;;;;;;;;;5056954;28;20044;-62
2022/01/03 04:31:32;;;;;;;14.00;2.28;;;;;;;;;;5051266;28;20418;-62
2022/01/03 04:33:59;;;;;;;12.00;2.05;;;;;;;;;;5051968;28;20036;-61
2022/01/03 04:36:26;;;;;;;11.18;2.28;;;;;;;;;;5052023;28;20271;-61
2022/01/03 04:38:51;;;;;;;8.70;2.03;;;;;;;;;;5051866;28;20037;-61
2022/01/03 04:41:17;;;;;;;13.82;2.30;;;;;;;;;;5051381;28;20037;-61
2022/01/03 04:43:42;;;;;;;11.75;2.05;;;;;;;;;;5067476;28;20087;-61
2022/01/03 04:46:08;;;;;;;12.43;2.17;;;;;;;;;;5048422;28;20029;-63
2022/01/03 04:48:36;;;;;;;13.07;1.83;;;;;;;;;;5049722;28;20113;-61
2022/01/03 04:51:02;;;;;;;9.30;1.83;;;;;;;;;;5052125;28;20150;-61
2022/01/03 04:53:27;;;;;;;11.93;2.25;;;;;;;;;;5041696;28;20164;-61
2022/01/03 04:55:53;;;;;;;14.93;2.47;;;;;;;;;;5047583;28;20469;-61
2022/01/03 04:58:19;;;;;;;11.52;2.65;;;;;;;;;;5050645;28;20033;-61
2022/01/03 05:00:44;;;;;;;12.65;1.77;;;;;;;;;;5048352;28;20029;-61
2022/01/03 05:03:10;;;;;;;11.68;1.98;;;;;;;;;;5050129;28;20059;-61
2022/01/03 05:05:35;;;;;;;7.93;2.10;;;;;;;;;;5045912;28;20032;-62
2022/01/03 05:08:01;;;;;;;13.50;3.05;;;;;;;;;;5051918;28;20493;-61
2022/01/03 05:10:26;;;;;;;10.48;2.17;;;;;;;;;;5051361;28;20132;-61
2022/01/03 05:12:52;;;;;;;12.82;1.75;;;;;;;;;;5048901;28;20493;-61
2022/01/03 05:15:17;;;;;;;11.70;2.35;;;;;;;;;;5049625;28;20060;-61
2022/01/03 05:17:42;;;;;;;11.38;1.95;;;;;;;;;;5048894;28;20021;-61
2022/01/03 05:20:08;;;;;;;10.63;2.00;;;;;;;;;;5050413;28;20032;-63
2022/01/03 05:22:34;;;;;;;11.60;2.30;;;;;;;;;;5051767;28;20060;-61
2022/01/03 05:24:59;;;;;;;8.98;2.00;;;;;;;;;;5052278;28;20037;-61
2022/01/03 05:27:24;;;;;;;10.95;2.53;;;;;;;;;;5051173;28;20032;-61
2022/01/03 05:29:50;;;;;;;14.43;2.65;;;;;;;;;;5049498;28;20041;-61
2022/01/03 05:32:15;;;;;;;16.27;2.13;;;;;;;;;;5050269;28;20039;-62
2022/01/03 05:34:41;;;;;;;16.40;2.65;;;;;;;;;;5061979;28;20408;-61
2022/01/03 05:37:06;;;;;;;14.20;2.45;;;;;;;;;;5046280;28;20029;-62
2022/01/03 05:39:32;;;;;;;8.43;1.95;;;;;;;;;;5050101;28;20120;-61
2022/01/03 05:41:57;;;;;;;14.23;2.80;;;;;;;;;;5054505;28;20037;-61
2022/01/03 05:44:22;;;;;;;13.80;2.50;;;;;;;;;;5051435;28;20386;-61
2022/01/03 05:46:49;;;;;;;14.30;3.53;;;;;;;;;;5052336;28;20120;-61
2022/01/03 05:49:14;;;;;;;14.05;2.20;;;;;;;;;;5040076;28;20041;-61
2022/01/03 05:51:40;;;;;;;12.50;2.47;;;;;;;;;;5052646;28;20115;-61
2022/01/03 05:54:05;;;;;;;13.23;2.40;;;;;;;;;;5052521;28;20028;-61
2022/01/03 05:56:31;;;;;;;13.43;2.72;;;;;;;;;;5052137;28;20068;-61
2022/01/03 05:58:57;;;;;;;17.13;2.38;;;;;;;;;;5050829;28;20029;-61
2022/01/03 06:01:23;;;;;;;9.88;2.05;;;;;;;;;;5049477;28;20039;-61
2022/01/03 06:03:58;;;;;;;10.93;2.22;;;;;;;;;;5033119;28;20036;-60
2022/01/03 06:06:53;;;;;;;6.78;1.98;;;;;;;;;;5050265;28;20036;-63
2022/01/03 06:09:10;;;;;;;14.02;2.85;;;;;;;;;;5051780;28;20037;-62
2022/01/03 06:11:36;;;;;;;9.55;2.40;;;;;;;;;;5050957;28;20036;-63
2022/01/03 06:14:01;;;;;;;10.60;2.25;;;;;;;;;;5032631;28;20459;-62
2022/01/03 06:16:26;;;;;;;12.18;2.42;;;;;;;;;;5047653;28;20037;-62
2022/01/03 06:18:52;;;;;;;10.95;2.30;;;;;;;;;;5051994;28;20037;-62
2022/01/03 06:21:17;;;;;;;10.35;2.80;;;;;;;;;;5049544;28;20391;-63
2022/01/03 06:23:44;;;;;;;17.05;2.92;;;;;;;;;;5052060;28;20471;-63
2022/01/03 06:26:09;;;;;;;8.40;2.17;;;;;;;;;;5051056;28;20074;-65
2022/01/03 06:28:34;;;;;;;13.98;2.45;;;;;;;;;;5051772;28;20037;-62
2022/01/03 06:31:00;;;;;;;11.40;2.92;;;;;;;;;;5048720;28;20029;-62
2022/01/03 06:33:25;;;;;;;11.27;2.45;;;;;;;;;;5050975;28;20036;-62
2022/01/03 06:35:51;;;;;;;15.75;2.83;;;;;;;;;;5051886;28;20037;-62
2022/01/03 06:38:16;;;;;;;13.80;2.60;;;;;;;;;;5049166;28;20044;-63
2022/01/03 06:40:41;;;;;;;17.65;2.80;;;;;;;;;;5051535;28;20036;-62
2022/01/03 06:43:07;;;;;;;13.77;2.83;;;;;;;;;;5051230;28;20064;-62
2022/01/03 06:45:32;;;;;;;14.13;2.83;;;;;;;;;;5048876;28;20029;-63
2022/01/03 06:47:58;;;;;;;11.52;2.80;;;;;;;;;;5051119;28;20371;-63
2022/01/03 06:50:23;;;;;;;10.40;2.70;;;;;;;;;;5050516;28;20107;-62
2022/01/03 06:52:49;;;;;;;12.82;2.63;;;;;;;;;;5051889;28;20036;-62
2022/01/03 06:55:15;;;;;;;8.40;1.83;;;;;;;;;;5049083;28;20115;-63
2022/01/03 06:57:40;;;;;;;18.77;3.05;;;;;;;;;;5051536;28;20561;-62
2022/01/03 07:00:07;;;;;;;10.00;2.40;;;;;;;;;;5049142;28;20033;-62
2022/01/03 07:02:32;;;;;;;14.82;2.47;;;;;;;;;;5049668;28;20542;-62
2022/01/03 07:04:58;;;;;;;12.80;2.47;;;;;;;;;;5050817;28;20028;-62
2022/01/03 07:07:23;;;;;;;13.80;2.60;;;;;;;;;;5046218;28;20402;-64
2022/01/03 07:09:49;;;;;;;8.20;2.17;;;;;;;;;;5039556;28;20482;-61
2022/01/03 07:12:16;;;;;;;13.13;2.70;;;;;;;;;;5049430;28;20028;-64
2022/01/03 07:19:57;;;;;;;10.07;2.08;;;;;;;;;;5048229;28;20067;-64
2022/01/03 07:22:24;;;;;;;16.95;3.15;;;;;;;;;;5047620;28;20032;-63
2022/01/03 07:24:51;;;;;;;12.05;3.42;;;;;;;;;;5044192;28;20118;-63
2022/01/03 07:27:16;;;;;;;12.93;2.65;;;;;;;;;;5031785;28;20029;-61
2022/01/03 07:29:42;;;;;;;11.57;2.47;;;;;;;;;;5050595;28;20033;-63
2022/01/03 07:32:09;;;;;;;10.40;2.40;;;;;;;;;;5049084;28;20474;-63
2022/01/03 07:34:35;;;;;;;15.70;3.50;;;;;;;;;;5047851;28;20033;-63
2022/01/03 07:37:00;;;;;;;13.27;2.40;;;;;;;;;;5050124;28;20033;-63
2022/01/03 07:39:28;;;;;;;8.45;2.28;;;;;;;;;;5049704;28;20040;-63
2022/01/03 07:41:54;;;;;;;9.15;2.20;;;;;;;;;;5050451;28;20033;-63
2022/01/03 07:44:19;;;;;;;11.85;2.08;;;;;;;;;;5048950;28;20033;-63
2022/01/03 07:46:44;;;;;;;16.38;1.95;;;;;;;;;;5048508;28;20061;-62
2022/01/03 07:49:10;;;;;;;13.38;2.78;;;;;;;;;;5050443;28;20043;-62
2022/01/03 07:51:37;;;;;;;18.95;2.78;;;;;;;;;;5046567;28;20037;-61
2022/01/03 07:54:03;;;;;;;16.35;2.97;;;;;;;;;;5053551;28;20028;-62
2022/01/03 07:56:28;;;;;;;12.73;2.83;;;;;;;;;;5052660;28;20448;-63
2022/01/03 07:58:54;;;;;;;14.88;2.70;;;;;;;;;;5048580;28;20036;-62
2022/01/03 08:01:19;;;;;;;13.55;2.90;;;;;;;;;;5046734;28;20032;-62
2022/01/03 08:03:44;;;;;;;12.80;2.50;;;;;;;;;;5053687;28;20044;-61
2022/01/03 08:06:10;;;;;;;16.95;2.75;;;;;;;;;;5053607;28;20040;-62
2022/01/03 08:08:37;;;;;;;13.07;3.00;;;;;;;;;;5053511;28;20087;-62
2022/01/03 08:11:02;;;;;;;13.73;3.00;;;;;;;;;;5052662;28;20120;-62
2022/01/03 08:13:28;;;;;;;11.00;2.53;;;;;;;;;;5062753;28;20115;-63
2022/01/03 08:15:53;;;;;;;13.77;2.75;;;;;;;;;;5055142;28;20497;-62
2022/01/03 08:18:18;;;;;;;12.00;2.67;;;;;;;;;;5053592;28;20032;-63
2022/01/03 08:20:44;;;;;;;10.57;2.65;;;;;;;;;;5053788;28;20483;-63
2022/01/03 08:23:09;;;;;;;13.85;2.35;;;;;;;;;;5052991;28;20040;-62
2022/01/03 08:25:37;;;;;;;11.85;2.17;;;;;;;;;;5052899;28;20036;-63
2022/01/03 08:28:08;;;;;;;9.68;2.30;;;;;;;;;;5052499;28;20021;-63
2022/01/03 08:30:34;;;;;;;10.50;2.00;;;;;;;;;;5056562;28;20072;-63
2022/01/03 08:33:00;;;;;;;4.80;1.52;;;;;;;;;;5052171;28;20044;-62
2022/01/03 08:35:26;;;;;;;8.02;1.90;;;;;;;;;;5051785;28;20108;-65
2022/01/03 08:37:52;;;;;;;8.65;2.15;;;;;;;;;;5053783;28;20498;-62
2022/01/03 08:40:18;;;;;;;11.43;2.35;;;;;;;;;;5052937;28;20112;-63
2022/01/03 08:42:43;;;;;;;12.70;2.47;;;;;;;;;;5033546;28;20128;-61
2022/01/03 08:45:09;;;;;;;12.02;3.28;;;;;;;;;;5036407;28;20163;-62
2022/01/03 08:47:35;;;;;;;15.30;2.90;;;;;;;;;;5053373;28;20086;-63
2022/01/03 08:50:01;;;;;;;12.75;2.70;;;;;;;;;;5053125;28;20037;-63
2022/01/03 08:52:27;;;;;;;15.95;3.05;;;;;;;;;;5051815;28;20394;-61
2022/01/03 08:54:52;;;;;;;20.48;3.88;;;;;;;;;;5053868;28;20033;-61
2022/01/03 08:57:19;;;;;;;19.60;3.38;;;;;;;;;;5051318;28;20185;-63
2022/01/03 08:59:44;;;;;;;18.90;3.92;;;;;;;;;;5059904;28;20524;-61
2022/01/03 09:02:10;;;;;;;15.30;3.38;;;;;;;;;;5049552;28;20120;-61
2022/01/03 09:04:35;;;;;;;12.77;3.10;;;;;;;;;;5051352;28;20601;-60
2022/01/03 09:07:00;;;;;;;10.02;2.95;;;;;;;;;;5047908;28;20025;-62
2022/01/03 09:09:27;;;;;;;18.70;4.63;;;;;;;;;;5052400;28;20082;-62
2022/01/03 09:11:53;;;;;;;11.07;3.13;;;;;;;;;;5052740;28;20041;-63
2022/01/03 09:14:19;;;;;;;14.55;2.50;;;;;;;;;;5052482;28;20049;-64
2022/01/03 09:16:44;;;;;;;13.85;3.33;;;;;;;;;;5047529;28;20037;-61
2022/01/03 09:19:10;;;;;;;9.82;2.10;;;;;;;;;;5052028;28;20025;-61
2022/01/03 09:21:35;;;;;;;15.80;2.92;;;;;;;;;;5051226;28;20024;-61
2022/01/03 09:24:26;;;;;;;14.15;3.17;;;;;;;;;;5053164;28;20158;-62
2022/01/03 09:29:34;;;;;;;8.95;2.70;;;;;;;;;;5040073;28;20442;-63
2022/01/03 09:32:00;;;;;;;12.05;2.40;;;;;;;;;;5051773;28;20474;-62
2022/01/03 09:34:25;;;;;;;11.35;3.30;;;;;;;;;;5052228;28;20037;-63
2022/01/03 09:36:51;;;;;;;13.05;3.70;;;;;;;;;;5053222;28;20098;-63
2022/01/03 09:39:16;;;;;;;15.05;3.15;;;;;;;;;;5052549;28;20025;-64
2022/01/03 09:42:07;;;;;;;10.15;3.28;;;;;;;;;;5052009;28;20029;-62
2022/01/03 09:44:34;;;;;;;;;;;;;;;;;;5014098;28;20118;-64
2022/01/03 09:47:03;;;;;;;9.35;2.92;;;;;;;;;;5034716;28;20341;-64
2022/01/03 09:49:34;;;;;;;14.60;3.13;;;;;;;;;;5046966;28;20479;-64
2022/01/03 09:52:02;;;;;;;13.30;2.92;;;;;;;;;;5033555;28;20377;-63
2022/01/03 09:54:28;;;;;;;12.40;2.80;;;;;;;;;;5031267;28;20108;-63
2022/01/03 09:56:55;;;;;;;12.02;2.80;;;;;;;;;;5045045;28;20394;-63
2022/01/03 09:59:20;;;;;;;10.88;2.22;;;;;;;;;;5051184;28;20041;-64
2022/01/03 10:01:46;;;;;;;7.57;2.85;;;;;;;;;;5050755;28;20082;-64
2022/01/03 10:04:15;;;;;;;11.88;2.72;;;;;;;;;;5050804;28;20505;-64
2022/01/03 10:06:41;;;;;;;16.88;3.17;;;;;;;;;;5050859;28;20110;-64
2022/01/03 10:09:07;;;;;;;9.30;2.80;;;;;;;;;;5051510;28;20021;-64
2022/01/03 10:11:32;;;;;;;16.33;3.30;;;;;;;;;;5051205;28;20036;-64
2022/01/03 10:14:01;;;;;;;8.68;2.65;;;;;;;;;;5050126;28;20052;-64
2022/01/03 10:16:31;;;;;;;8.02;2.40;;;;;;;;;;5050776;28;20028;-64
2022/01/03 10:18:57;;;;;;;10.68;2.45;;;;;;;;;;5048579;28;20032;-64
2022/01/03 10:21:47;;;;;;;13.45;2.60;;;;;;;;;;5050933;28;20029;-65
2022/01/03 10:24:15;;;;;;;17.52;3.00;;;;;;;;;;5051586;28;20040;-64
2022/01/03 10:26:42;;;;;;;10.60;2.20;;;;;;;;;;5050873;28;20028;-66
2022/01/03 10:29:10;;;;;;;9.07;2.40;;;;;;;;;;5058971;28;20034;-65
2022/01/03 10:31:39;;;;;;;13.85;2.65;;;;;;;;;;5071090;28;20548;-66
2022/01/03 10:34:06;;;;;;;15.38;3.20;;;;;;;;;;5057619;28;20025;-67
2022/01/03 10:36:35;;;;;;;10.55;2.55;;;;;;;;;;5050790;28;20036;-67
2022/01/03 10:39:19;;;;;;;11.65;2.38;;;;;;;;;;5051602;28;20037;-67
2022/01/03 10:41:46;;;;;;;10.52;2.55;;;;;;;;;;5050324;28;20033;-69
2022/01/03 10:44:33;;;;;;;9.77;2.45;;;;;;;;;;5051992;28;20060;-70
2022/01/03 10:46:59;;;;;;;11.68;2.97;;;;;;;;;;5051113;28;20482;-70
2022/01/03 10:49:26;;;;;;;13.02;2.55;;;;;;;;;;5049054;28;20029;-70
2022/01/03 10:51:52;;;;;;;9.55;2.63;;;;;;;;;;5066716;28;20107;-67
2022/01/03 10:54:18;;;;;;;8.75;2.15;;;;;;;;;;5051007;28;20467;-67
2022/01/03 10:56:48;;;;;;;10.18;2.55;;;;;;;;;;5047170;28;20100;-66
2022/01/03 10:59:22;;;;;;;10.43;2.70;;;;;;;;;;5049576;28;20425;-65
2022/01/03 11:01:59;;;;;;;10.50;2.55;;;;;;;;;;5051181;28;20079;-66
2022/01/03 11:13:13;;;;;;;8.35;2.22;;;;;;;;;;5051030;28;20402;-65
2022/01/03 11:15:42;;;;;;;8.38;2.45;;;;;;;;;;5050393;28;20061;-64
2022/01/03 11:18:12;;;;;;;10.57;2.17;;;;;;;;;;5051263;28;20037;-63
2022/01/03 11:20:37;;;;;;;11.82;2.42;;;;;;;;;;5049296;28;20517;-64
2022/01/03 11:23:03;;;;;;;13.95;2.10;;;;;;;;;;5066201;28;20526;-64
2022/01/03 11:25:30;;;;;;;13.90;2.65;;;;;;;;;;5047243;28;20410;-63
2022/01/03 11:27:56;;;;;;;10.52;2.47;;;;;;;;;;5053284;28;20178;-64
2022/01/03 11:30:22;;;;;;;11.20;2.35;;;;;;;;;;5054741;28;20492;-67
2022/01/03 11:32:49;;;;;;;14.57;2.65;;;;;;;;;;5054550;28;20039;-62
2022/01/03 11:35:15;;;;;;;14.88;2.97;;;;;;;;;;5055315;28;20112;-63
2022/01/03 11:37:44;;;;;;;12.10;2.60;;;;;;;;;;5051882;28;20033;-65
2022/01/03 11:40:11;;;;;;;13.77;2.58;;;;;;;;;;5053949;28;20037;-61
2022/01/03 11:42:37;;;;;;;10.43;2.22;;;;;;;;;;5053563;28;20494;-61
2022/01/03 11:45:03;;;;;;;16.20;2.85;;;;;;;;;;5054328;28;20119;-63
2022/01/03 11:47:31;;;;;;;14.60;2.50;;;;;;;;;;5053905;28;20029;-63
2022/01/03 11:49:57;;;;;;;8.60;2.17;;;;;;;;;;5052447;28;20025;-64
2022/01/03 11:52:23;;;;;;;6.70;2.20;;;;;;;;;;5053885;28;20025;-65
2022/01/03 11:54:51;;;;;;;14.63;2.90;;;;;;;;;;5070041;28;20091;-63
2022/01/03 12:05:55;;;;;;;9.30;2.50;;;;;;;;;;5035009;28;20056;-63
2022/01/03 12:08:30;;;;;;;7.75;2.13;;;;;;;;;;5034744;28;20459;-64
2022/01/03 12:11:00;;;;;;;10.73;2.28;;;;;;;;;;5054691;28;20040;-63
2022/01/03 12:13:48;;;;;;;9.63;2.05;;;;;;;;;;5053274;28;20021;-64
2022/01/03 12:16:14;;;;;;;5.93;1.88;;;;;;;;;;5034755;28;20431;-63
2022/01/03 12:18:56;;;;;;;10.13;2.47;;;;;;;;;;5048000;28;20067;-62
2022/01/03 12:21:50;;;;;;;11.25;2.35;;;;;;;;;;5053896;28;20036;-65
2022/01/03 12:24:27;;;;;;;6.43;2.13;;;;;;;;;;5053530;28;20142;-63
2022/01/03 12:27:14;;;;;;;11.27;2.38;;;;;;;;;;5054091;28;20038;-63
2022/01/03 12:29:54;;;;;;;10.70;2.08;;;;;;;;;;5053211;28;20033;-65
2022/01/03 12:32:27;;;;;;;8.80;2.13;;;;;;;;;;5054276;28;20223;-68
2022/01/03 12:35:12;;;;;;;9.98;2.05;;;;;;;;;;5053748;28;20494;-64
2022/01/03 12:37:38;;;;;;;13.18;2.60;;;;;;;;;;5052415;28;20571;-65
2022/01/03 12:40:03;;;;;;;11.60;2.15;;;;;;;;;;5053544;28;20108;-63
2022/01/03 12:42:51;;;;;;;8.90;2.20;;;;;;;;;;5052851;28;20355;-64
2022/01/03 12:45:25;;;;;;;9.57;2.58;;;;;;;;;;5053525;28;20041;-63
2022/01/03 12:47:51;;;;;;;10.20;2.53;;;;;;;;;;5049742;28;20500;-63
2022/01/03 12:50:22;;;;;;;10.13;2.30;;;;;;;;;;5049300;28;20475;-63
2022/01/03 12:52:48;;;;;;;;;;;;;;;;;;5043538;28;20071;-64
2022/01/03 12:55:39;;;;;;;5.45;1.58;;;;;;;;;;5053464;28;19912;-64
2022/01/03 12:58:13;;;;;;;7.55;1.95;;;;;;;;;;5053842;28;20035;-63
2022/01/03 13:00:41;;;;;;;14.18;2.30;;;;;;;;;;5052396;28;20054;-63
2022/01/03 13:03:25;;;;;;;11.05;2.70;;;;;;;;;;5052074;28;20025;-67
2022/01/03 13:06:15;;;;;;;13.32;4.07;;;;;;;;;;5053477;28;20470;-64
2022/01/03 13:08:56;;;;;;;6.25;2.08;;;;;;;;;;5051055;28;20159;-66
2022/01/03 13:11:25;;;;;;;8.18;2.30;;;;;;;;;;5053081;28;20037;-66
2022/01/03 13:13:57;;;;;;;8.40;1.85;;;;;;;;;;5052066;28;20057;-65
2022/01/03 13:16:32;;;;;;;18.13;3.20;;;;;;;;;;5052316;28;20033;-69
2022/01/03 13:19:30;;;;;;;12.38;2.88;;;;;;;;;;5053429;28;20029;-65
2022/01/03 13:22:01;;;;;;;10.88;2.85;;;;;;;;;;5033115;28;20041;-66
2022/01/03 13:24:40;;;;;;;9.77;2.08;;;;;;;;;;5048198;28;20032;-71
2022/01/03 13:27:16;;;;;;;12.32;2.35;;;;;;;;;;5051612;28;20047;-65
2022/01/03 13:29:47;;;;;;;11.60;2.60;;;;;;;;;;5047378;28;20035;-64
2022/01/03 13:32:19;;;;;;;15.48;2.97;;;;;;;;;;5052463;28;20104;-63
2022/01/03 13:34:48;;;;;;;14.70;3.35;;;;;;;;;;5051559;28;20025;-64
2022/01/03 13:37:15;;;;;;;7.35;2.40;;;;;;;;;;5053022;28;20111;-64
2022/01/03 13:39:44;;;;;;;11.55;2.60;;;;;;;;;;5049761;28;20123;-64
2022/01/03 13:42:18;;;;;;;16.17;3.20;;;;;;;;;;5047047;28;20037;-66
2022/01/03 13:50:17;;;;;;;8.20;2.90;;;;;;;;;;5051763;28;20036;-64
2022/01/03 13:52:48;;;;;;;9.35;2.42;;;;;;;;;;5053405;28;20033;-65
2022/01/03 13:55:32;;;;;;;9.75;2.42;;;;;;;;;;5049967;28;20040;-65
2022/01/03 13:58:09;;;;;;;8.35;1.90;;;;;;;;;;5031214;28;20067;-65
2022/01/03 14:00:48;;;;;;;8.55;2.50;;;;;;;;;;5046594;28;20113;-66
2022/01/03 14:03:19;;;;;;;9.07;2.13;;;;;;;;;;5037564;28;20120;-64
2022/01/03 14:05:44;;;;;;;5.35;2.22;;;;;;;;;;5035030;28;20032;-67
2022/01/03 14:08:14;;;;;;;8.77;2.30;;;;;;;;;;5052336;28;20120;-69
2022/01/03 14:10:45;;;;;;;8.38;1.90;;;;;;;;;;5051476;28;20136;-68
2022/01/03 14:13:14;;;;;;;11.25;2.20;;;;;;;;;;5051956;28;20459;-66
2022/01/03 14:15:59;;;;;;;8.55;2.25;;;;;;;;;;5050427;28;20095;-65
2022/01/03 14:18:38;;;;;;;4.25;1.75;;;;;;;;;;5049612;28;20059;-67
2022/01/03 14:21:17;;;;;;;4.22;1.90;;;;;;;;;;5051070;28;20441;-63
2022/01/03 14:23:42;;;;;;;5.15;1.70;;;;;;;;;;5049709;28;20636;-65
2022/01/03 14:26:19;;;;;;;6.45;2.20;;;;;;;;;;5048165;28;20048;-66
2022/01/03 14:28:44;;;;;;;8.60;2.40;;;;;;;;;;5049074;28;20044;-64
2022/01/03 14:31:11;;;;;;;8.57;2.15;;;;;;;;;;5049603;28;20029;-64
2022/01/03 14:33:39;;;;;;;5.80;2.20;;;;;;;;;;5048622;28;20056;-65
2022/01/03 14:36:18;;;;;;;13.32;2.50;;;;;;;;;;5050983;28;20029;-65
2022/01/03 14:38:46;;;;;;;11.25;2.42;;;;;;;;;;5048603;28;20124;-65
2022/01/03 14:41:26;;;;;;;12.65;2.85;;;;;;;;;;5037084;28;20025;-65
2022/01/03 14:44:01;;;;;;;10.55;2.90;;;;;;;;;;5041369;28;20490;-65
2022/01/03 14:46:36;;;;;;;11.20;2.50;;;;;;;;;;5043387;28;20028;-65
2022/01/03 14:49:04;;;;;;;10.60;2.35;;;;;;;;;;5031030;28;20116;-65
2022/01/03 14:51:48;;;;;;;7.40;2.05;;;;;;;;;;5029876;28;20367;-65
2022/01/03 14:54:28;;;;;;;7.57;1.95;;;;;;;;;;5030939;28;20038;-65
2022/01/03 14:56:55;;;;;;;7.95;2.70;;;;;;;;;;5034053;28;20511;-66
2022/01/03 14:59:30;;;;;;;5.18;1.85;;;;;;;;;;5050624;28;20489;-66
2022/01/03 15:01:56;;;;;;;5.68;1.85;;;;;;;;;;5048404;28;20039;-64
2022/01/03 15:04:24;;;;;;;5.55;1.70;;;;;;;;;;5040864;28;20056;-65
2022/01/03 15:06:50;;;;;;;7.53;2.30;;;;;;;;;;5050733;28;20025;-65
2022/01/03 15:09:16;;;;;;;10.45;2.33;;;;;;;;;;5050558;28;20072;-64
2022/01/03 15:11:42;;;;;;;10.10;2.22;;;;;;;;;;5049508;28;20180;-65
2022/01/03 15:14:08;;;;;;;11.15;2.60;;;;;;;;;;5010258;28;1132146;-65
2022/01/03 15:16:34;;;;;;;9.25;2.10;;;;;;;;;;5030688;28;20048;-65
2022/01/03 15:19:00;;;;;;;6.80;2.30;;;;;;;;;;5038992;28;20029;-65